sensor_id;sensor_type;location;lat;lon;timestamp;temperature;humidity
12060;DHT22;6091;51.432;6.880;2023-08-12T00:01:24;29.00;44.40
12060;DHT22;6091;51.432;6.880;2023-08-12T00:03:51;29.00;44.50
12060;DHT22;6091;51.432;6.880;2023-08-12T00:06:20;29.00;44.50
12060;DHT22;6091;51.432;6.880;2023-08-12T00:08:47;28.90;44.50
12060;DHT22;6091;51.432;6.880;2023-08-12T00:11:14;28.90;44.50
12060;DHT22;6091;51.432;6.880;2023-08-12T00:13:41;28.90;44.50
12060;DHT22;6091;51.432;6.880;2023-08-12T00:16:08;28.90;44.50
12060;DHT22;6091;51.432;6.880;2023-08-12T00:18:35;28.90;44.60
12060;DHT22;6091;51.432;6.880;2023-08-12T00:21:06;28.90;44.60
12060;DHT22;6091;51.432;6.880;2023-08-12T00:23:38;28.90;44.70
12060;DHT22;6091;51.432;6.880;2023-08-12T00:26:10;28.90;44.70
12060;DHT22;6091;51.432;6.880;2023-08-12T00:28:38;28.90;44.60
12060;DHT22;6091;51.432;6.880;2023-08-12T00:31:05;28.90;44.70
12060;DHT22;6091;51.432;6.880;2023-08-12T00:33:32;28.90;44.70
12060;DHT22;6091;51.432;6.880;2023-08-12T00:36:00;28.90;44.80
12060;DHT22;6091;51.432;6.880;2023-08-12T00:38:28;28.90;44.80
12060;DHT22;6091;51.432;6.880;2023-08-12T00:40:55;28.90;44.80
12060;DHT22;6091;51.432;6.880;2023-08-12T00:43:22;28.90;44.80
12060;DHT22;6091;51.432;6.880;2023-08-12T00:45:49;28.90;44.80
12060;DHT22;6091;51.432;6.880;2023-08-12T00:48:17;28.90;44.90
12060;DHT22;6091;51.432;6.880;2023-08-12T00:50:45;28.90;44.90
12060;DHT22;6091;51.432;6.880;2023-08-12T00:53:13;28.90;44.90
12060;DHT22;6091;51.432;6.880;2023-08-12T00:55:42;28.90;44.90
12060;DHT22;6091;51.432;6.880;2023-08-12T00:58:10;28.90;44.90
12060;DHT22;6091;51.432;6.880;2023-08-12T01:00:37;28.80;45.00
12060;DHT22;6091;51.432;6.880;2023-08-12T01:03:05;28.80;44.90
12060;DHT22;6091;51.432;6.880;2023-08-12T01:05:33;28.80;45.00
12060;DHT22;6091;51.432;6.880;2023-08-12T01:08:04;28.80;45.00
12060;DHT22;6091;51.432;6.880;2023-08-12T01:10:35;28.80;45.00
12060;DHT22;6091;51.432;6.880;2023-08-12T01:13:23;28.80;45.10
12060;DHT22;6091;51.432;6.880;2023-08-12T01:16:05;28.80;45.10
12060;DHT22;6091;51.432;6.880;2023-08-12T01:18:36;28.80;45.10
12060;DHT22;6091;51.432;6.880;2023-08-12T01:21:07;28.80;45.10
12060;DHT22;6091;51.432;6.880;2023-08-12T01:23:36;28.80;45.20
12060;DHT22;6091;51.432;6.880;2023-08-12T01:26:03;28.80;45.10
12060;DHT22;6091;51.432;6.880;2023-08-12T01:28:30;28.80;45.20
12060;DHT22;6091;51.432;6.880;2023-08-12T01:31:06;28.80;45.20
12060;DHT22;6091;51.432;6.880;2023-08-12T01:34:01;28.80;45.40
12060;DHT22;6091;51.432;6.880;2023-08-12T01:36:37;28.80;45.40
12060;DHT22;6091;51.432;6.880;2023-08-12T01:39:27;28.80;45.30
12060;DHT22;6091;51.432;6.880;2023-08-12T01:41:57;28.80;45.20
12060;DHT22;6091;51.432;6.880;2023-08-12T01:44:25;28.80;45.20
12060;DHT22;6091;51.432;6.880;2023-08-12T01:46:53;28.80;45.30
12060;DHT22;6091;51.432;6.880;2023-08-12T01:49:41;28.80;45.30
12060;DHT22;6091;51.432;6.880;2023-08-12T01:52:35;28.80;45.30
12060;DHT22;6091;51.432;6.880;2023-08-12T01:55:02;28.80;45.30
12060;DHT22;6091;51.432;6.880;2023-08-12T01:57:30;28.80;45.30
12060;DHT22;6091;51.432;6.880;2023-08-12T01:59:57;28.80;45.40
12060;DHT22;6091;51.432;6.880;2023-08-12T02:02:24;28.80;45.40
12060;DHT22;6091;51.432;6.880;2023-08-12T02:04:52;28.80;45.40
12060;DHT22;6091;51.432;6.880;2023-08-12T02:07:19;28.80;45.40
12060;DHT22;6091;51.432;6.880;2023-08-12T02:09:46;28.80;46.10
12060;DHT22;6091;51.432;6.880;2023-08-12T02:12:13;28.80;45.50
12060;DHT22;6091;51.432;6.880;2023-08-12T02:14:43;28.80;46.10
12060;DHT22;6091;51.432;6.880;2023-08-12T02:17:10;28.80;45.50
12060;DHT22;6091;51.432;6.880;2023-08-12T02:19:38;28.80;45.50
12060;DHT22;6091;51.432;6.880;2023-08-12T02:22:05;28.70;45.50
12060;DHT22;6091;51.432;6.880;2023-08-12T02:24:32;28.70;45.50
12060;DHT22;6091;51.432;6.880;2023-08-12T02:26:59;28.80;45.60
12060;DHT22;6091;51.432;6.880;2023-08-12T02:29:26;28.70;45.50
12060;DHT22;6091;51.432;6.880;2023-08-12T02:31:53;28.70;45.50
12060;DHT22;6091;51.432;6.880;2023-08-12T02:34:20;28.80;45.60
12060;DHT22;6091;51.432;6.880;2023-08-12T02:36:50;28.70;45.60
12060;DHT22;6091;51.432;6.880;2023-08-12T02:39:17;28.70;45.60
12060;DHT22;6091;51.432;6.880;2023-08-12T02:41:43;28.30;45.30
12060;DHT22;6091;51.432;6.880;2023-08-12T02:44:10;28.70;45.60
12060;DHT22;6091;51.432;6.880;2023-08-12T02:46:41;28.70;45.60
12060;DHT22;6091;51.432;6.880;2023-08-12T02:49:07;28.70;45.60
12060;DHT22;6091;51.432;6.880;2023-08-12T02:51:34;28.70;45.70
12060;DHT22;6091;51.432;6.880;2023-08-12T02:54:04;28.70;45.70
12060;DHT22;6091;51.432;6.880;2023-08-12T02:56:31;28.70;45.70
12060;DHT22;6091;51.432;6.880;2023-08-12T02:58:58;28.70;45.70
12060;DHT22;6091;51.432;6.880;2023-08-12T03:01:26;28.70;45.70
12060;DHT22;6091;51.432;6.880;2023-08-12T03:03:54;28.70;45.70
12060;DHT22;6091;51.432;6.880;2023-08-12T03:06:21;28.70;45.70
12060;DHT22;6091;51.432;6.880;2023-08-12T03:08:48;28.70;45.70
12060;DHT22;6091;51.432;6.880;2023-08-12T03:11:15;28.70;45.70
12060;DHT22;6091;51.432;6.880;2023-08-12T03:13:43;28.70;45.80
12060;DHT22;6091;51.432;6.880;2023-08-12T03:16:13;28.70;45.80
12060;DHT22;6091;51.432;6.880;2023-08-12T03:18:41;28.70;45.90
12060;DHT22;6091;51.432;6.880;2023-08-12T03:21:08;28.70;45.80
12060;DHT22;6091;51.432;6.880;2023-08-12T03:23:37;28.70;45.80
12060;DHT22;6091;51.432;6.880;2023-08-12T03:26:04;28.70;45.90
12060;DHT22;6091;51.432;6.880;2023-08-12T03:28:31;28.70;45.80
12060;DHT22;6091;51.432;6.880;2023-08-12T03:30:58;28.70;45.90
12060;DHT22;6091;51.432;6.880;2023-08-12T03:33:25;28.70;45.90
12060;DHT22;6091;51.432;6.880;2023-08-12T03:35:54;28.70;45.90
12060;DHT22;6091;51.432;6.880;2023-08-12T03:38:21;28.70;45.90
12060;DHT22;6091;51.432;6.880;2023-08-12T03:40:50;28.70;45.90
12060;DHT22;6091;51.432;6.880;2023-08-12T03:43:17;28.70;46.00
12060;DHT22;6091;51.432;6.880;2023-08-12T03:45:44;28.70;45.90
12060;DHT22;6091;51.432;6.880;2023-08-12T03:48:12;28.70;46.00
12060;DHT22;6091;51.432;6.880;2023-08-12T03:50:40;28.70;46.00
12060;DHT22;6091;51.432;6.880;2023-08-12T03:53:09;28.70;46.00
12060;DHT22;6091;51.432;6.880;2023-08-12T03:55:36;28.70;46.60
12060;DHT22;6091;51.432;6.880;2023-08-12T03:58:03;28.70;46.00
12060;DHT22;6091;51.432;6.880;2023-08-12T04:00:30;28.70;46.00
12060;DHT22;6091;51.432;6.880;2023-08-12T04:02:57;28.70;46.10
12060;DHT22;6091;51.432;6.880;2023-08-12T04:05:25;28.70;46.10
12060;DHT22;6091;51.432;6.880;2023-08-12T04:07:52;28.70;46.10
12060;DHT22;6091;51.432;6.880;2023-08-12T04:10:19;28.70;46.10
12060;DHT22;6091;51.432;6.880;2023-08-12T04:12:46;28.70;46.10
12060;DHT22;6091;51.432;6.880;2023-08-12T04:15:13;28.60;46.10
12060;DHT22;6091;51.432;6.880;2023-08-12T04:17:40;28.70;46.20
12060;DHT22;6091;51.432;6.880;2023-08-12T04:20:08;28.60;46.10
12060;DHT22;6091;51.432;6.880;2023-08-12T04:22:35;28.70;46.20
12060;DHT22;6091;51.432;6.880;2023-08-12T04:25:03;28.60;46.10
12060;DHT22;6091;51.432;6.880;2023-08-12T04:27:30;28.60;46.10
12060;DHT22;6091;51.432;6.880;2023-08-12T04:29:57;28.60;46.10
12060;DHT22;6091;51.432;6.880;2023-08-12T04:32:27;28.60;46.50
12060;DHT22;6091;51.432;6.880;2023-08-12T04:34:54;28.70;46.30
12060;DHT22;6091;51.432;6.880;2023-08-12T04:37:25;28.60;46.10
12060;DHT22;6091;51.432;6.880;2023-08-12T04:39:52;28.70;46.20
12060;DHT22;6091;51.432;6.880;2023-08-12T04:42:19;28.60;46.80
12060;DHT22;6091;51.432;6.880;2023-08-12T04:44:46;28.60;46.20
12060;DHT22;6091;51.432;6.880;2023-08-12T04:47:14;28.60;46.20
12060;DHT22;6091;51.432;6.880;2023-08-12T04:49:41;28.60;46.20
12060;DHT22;6091;51.432;6.880;2023-08-12T04:52:10;28.60;46.20
12060;DHT22;6091;51.432;6.880;2023-08-12T04:54:37;28.60;46.20
12060;DHT22;6091;51.432;6.880;2023-08-12T04:57:04;28.60;46.30
12060;DHT22;6091;51.432;6.880;2023-08-12T04:59:37;28.60;46.30
12060;DHT22;6091;51.432;6.880;2023-08-12T05:02:04;28.60;46.30
12060;DHT22;6091;51.432;6.880;2023-08-12T05:04:31;28.60;46.30
12060;DHT22;6091;51.432;6.880;2023-08-12T05:06:58;28.60;46.30
12060;DHT22;6091;51.432;6.880;2023-08-12T05:09:28;28.60;46.30
12060;DHT22;6091;51.432;6.880;2023-08-12T05:11:55;28.70;46.40
12060;DHT22;6091;51.432;6.880;2023-08-12T05:14:22;28.60;46.30
12060;DHT22;6091;51.432;6.880;2023-08-12T05:16:49;28.60;46.30
12060;DHT22;6091;51.432;6.880;2023-08-12T05:19:15;28.70;46.30
12060;DHT22;6091;51.432;6.880;2023-08-12T05:21:42;28.60;46.30
12060;DHT22;6091;51.432;6.880;2023-08-12T05:24:09;28.70;46.40
12060;DHT22;6091;51.432;6.880;2023-08-12T05:26:38;28.70;46.40
12060;DHT22;6091;51.432;6.880;2023-08-12T05:29:05;28.70;46.40
12060;DHT22;6091;51.432;6.880;2023-08-12T05:31:32;28.70;46.40
12060;DHT22;6091;51.432;6.880;2023-08-12T05:33:59;28.70;46.40
12060;DHT22;6091;51.432;6.880;2023-08-12T05:36:26;28.70;46.40
12060;DHT22;6091;51.432;6.880;2023-08-12T05:38:53;28.70;46.40
12060;DHT22;6091;51.432;6.880;2023-08-12T05:41:20;28.70;46.40
12060;DHT22;6091;51.432;6.880;2023-08-12T05:43:48;28.70;46.40
12060;DHT22;6091;51.432;6.880;2023-08-12T05:46:15;28.70;46.40
12060;DHT22;6091;51.432;6.880;2023-08-12T05:48:42;28.70;46.40
12060;DHT22;6091;51.432;6.880;2023-08-12T05:51:12;28.60;46.40
12060;DHT22;6091;51.432;6.880;2023-08-12T05:53:39;28.70;46.50
12060;DHT22;6091;51.432;6.880;2023-08-12T05:56:06;28.70;46.50
12060;DHT22;6091;51.432;6.880;2023-08-12T05:58:33;28.70;46.50
12060;DHT22;6091;51.432;6.880;2023-08-12T06:01:00;28.70;46.50
12060;DHT22;6091;51.432;6.880;2023-08-12T06:03:27;28.70;46.60
12060;DHT22;6091;51.432;6.880;2023-08-12T06:05:54;28.70;47.10
12060;DHT22;6091;51.432;6.880;2023-08-12T06:08:21;28.70;46.50
12060;DHT22;6091;51.432;6.880;2023-08-12T06:10:48;28.70;46.50
12060;DHT22;6091;51.432;6.880;2023-08-12T06:13:15;28.60;46.50
12060;DHT22;6091;51.432;6.880;2023-08-12T06:15:42;28.70;46.60
12060;DHT22;6091;51.432;6.880;2023-08-12T06:18:09;28.70;46.50
12060;DHT22;6091;51.432;6.880;2023-08-12T06:20:36;28.60;46.50
12060;DHT22;6091;51.432;6.880;2023-08-12T06:23:03;28.70;46.60
12060;DHT22;6091;51.432;6.880;2023-08-12T06:25:32;28.70;46.60
12060;DHT22;6091;51.432;6.880;2023-08-12T06:28:00;28.70;46.60
12060;DHT22;6091;51.432;6.880;2023-08-12T06:30:28;28.70;46.60
12060;DHT22;6091;51.432;6.880;2023-08-12T06:32:55;28.70;46.60
12060;DHT22;6091;51.432;6.880;2023-08-12T06:35:22;28.70;46.60
12060;DHT22;6091;51.432;6.880;2023-08-12T06:37:49;28.70;46.60
12060;DHT22;6091;51.432;6.880;2023-08-12T06:40:16;28.70;46.60
12060;DHT22;6091;51.432;6.880;2023-08-12T06:42:43;28.70;46.60
12060;DHT22;6091;51.432;6.880;2023-08-12T06:45:11;28.70;46.60
12060;DHT22;6091;51.432;6.880;2023-08-12T06:47:38;28.70;46.70
12060;DHT22;6091;51.432;6.880;2023-08-12T06:50:05;28.70;46.70
12060;DHT22;6091;51.432;6.880;2023-08-12T06:52:32;28.70;46.70
12060;DHT22;6091;51.432;6.880;2023-08-12T06:54:59;28.70;46.70
12060;DHT22;6091;51.432;6.880;2023-08-12T06:57:26;28.70;46.70
12060;DHT22;6091;51.432;6.880;2023-08-12T06:59:53;28.70;46.70
12060;DHT22;6091;51.432;6.880;2023-08-12T07:02:20;28.70;46.70
12060;DHT22;6091;51.432;6.880;2023-08-12T07:04:47;28.60;46.70
12060;DHT22;6091;51.432;6.880;2023-08-12T07:07:15;28.60;46.70
12060;DHT22;6091;51.432;6.880;2023-08-12T07:09:42;28.60;46.70
12060;DHT22;6091;51.432;6.880;2023-08-12T07:12:10;28.70;46.80
12060;DHT22;6091;51.432;6.880;2023-08-12T07:14:37;28.70;46.80
12060;DHT22;6091;51.432;6.880;2023-08-12T07:17:04;28.60;46.80
12060;DHT22;6091;51.432;6.880;2023-08-12T07:19:31;28.60;46.80
12060;DHT22;6091;51.432;6.880;2023-08-12T07:21:58;28.60;46.90
12060;DHT22;6091;51.432;6.880;2023-08-12T07:24:25;28.70;47.00
12060;DHT22;6091;51.432;6.880;2023-08-12T07:26:52;28.70;47.10
12060;DHT22;6091;51.432;6.880;2023-08-12T07:29:19;28.70;47.10
12060;DHT22;6091;51.432;6.880;2023-08-12T07:31:47;28.70;47.20
12060;DHT22;6091;51.432;6.880;2023-08-12T07:34:14;28.70;47.20
12060;DHT22;6091;51.432;6.880;2023-08-12T07:36:43;28.70;47.30
12060;DHT22;6091;51.432;6.880;2023-08-12T07:39:10;28.70;47.40
12060;DHT22;6091;51.432;6.880;2023-08-12T07:41:37;28.70;47.40
12060;DHT22;6091;51.432;6.880;2023-08-12T07:44:04;28.70;47.50
12060;DHT22;6091;51.432;6.880;2023-08-12T07:46:34;28.80;47.60
12060;DHT22;6091;51.432;6.880;2023-08-12T07:49:01;28.80;47.60
12060;DHT22;6091;51.432;6.880;2023-08-12T07:51:28;28.80;47.60
12060;DHT22;6091;51.432;6.880;2023-08-12T07:53:55;28.80;47.60
12060;DHT22;6091;51.432;6.880;2023-08-12T07:56:22;28.80;47.50
12060;DHT22;6091;51.432;6.880;2023-08-12T07:58:49;28.80;47.50
12060;DHT22;6091;51.432;6.880;2023-08-12T08:01:16;28.80;47.50
12060;DHT22;6091;51.432;6.880;2023-08-12T08:03:43;28.90;47.60
12060;DHT22;6091;51.432;6.880;2023-08-12T08:06:11;28.90;47.50
12060;DHT22;6091;51.432;6.880;2023-08-12T08:08:37;28.90;47.50
12060;DHT22;6091;51.432;6.880;2023-08-12T08:11:05;28.90;47.50
12060;DHT22;6091;51.432;6.880;2023-08-12T08:13:33;28.90;47.60
12060;DHT22;6091;51.432;6.880;2023-08-12T08:16:01;28.90;47.50
12060;DHT22;6091;51.432;6.880;2023-08-12T08:18:28;28.90;47.50
12060;DHT22;6091;51.432;6.880;2023-08-12T08:20:55;29.00;47.60
12060;DHT22;6091;51.432;6.880;2023-08-12T08:23:22;28.90;47.50
12060;DHT22;6091;51.432;6.880;2023-08-12T08:25:50;29.00;47.60
12060;DHT22;6091;51.432;6.880;2023-08-12T08:28:17;29.00;47.60
12060;DHT22;6091;51.432;6.880;2023-08-12T08:30:44;29.00;47.70
12060;DHT22;6091;51.432;6.880;2023-08-12T08:33:11;29.00;47.60
12060;DHT22;6091;51.432;6.880;2023-08-12T08:35:38;29.00;47.70
12060;DHT22;6091;51.432;6.880;2023-08-12T08:38:05;29.00;47.70
12060;DHT22;6091;51.432;6.880;2023-08-12T08:40:32;29.00;47.70
12060;DHT22;6091;51.432;6.880;2023-08-12T08:43:02;29.00;47.70
12060;DHT22;6091;51.432;6.880;2023-08-12T08:45:32;29.00;47.70
12060;DHT22;6091;51.432;6.880;2023-08-12T08:48:01;29.00;47.70
12060;DHT22;6091;51.432;6.880;2023-08-12T08:50:32;29.00;47.70
12060;DHT22;6091;51.432;6.880;2023-08-12T08:53:01;29.10;47.80
12060;DHT22;6091;51.432;6.880;2023-08-12T08:55:32;29.10;47.80
12060;DHT22;6091;51.432;6.880;2023-08-12T08:58:00;29.10;47.80
12060;DHT22;6091;51.432;6.880;2023-08-12T09:00:31;29.10;48.40
12060;DHT22;6091;51.432;6.880;2023-08-12T09:03:00;29.10;47.80
12060;DHT22;6091;51.432;6.880;2023-08-12T09:05:28;29.10;47.80
12060;DHT22;6091;51.432;6.880;2023-08-12T09:07:58;29.10;47.80
12060;DHT22;6091;51.432;6.880;2023-08-12T09:10:28;29.10;47.70
12060;DHT22;6091;51.432;6.880;2023-08-12T09:12:56;29.10;47.80
12060;DHT22;6091;51.432;6.880;2023-08-12T09:15:24;29.10;47.70
12060;DHT22;6091;51.432;6.880;2023-08-12T09:17:51;29.10;47.70
12060;DHT22;6091;51.432;6.880;2023-08-12T09:20:18;29.20;47.80
12060;DHT22;6091;51.432;6.880;2023-08-12T09:22:55;29.20;47.80
12060;DHT22;6091;51.432;6.880;2023-08-12T09:25:26;29.20;48.60
12060;DHT22;6091;51.432;6.880;2023-08-12T09:27:58;29.20;47.90
12060;DHT22;6091;51.432;6.880;2023-08-12T09:30:30;29.20;47.80
12060;DHT22;6091;51.432;6.880;2023-08-12T09:32:59;29.20;47.90
12060;DHT22;6091;51.432;6.880;2023-08-12T09:35:40;29.20;47.90
12060;DHT22;6091;51.432;6.880;2023-08-12T09:38:14;29.20;47.90
12060;DHT22;6091;51.432;6.880;2023-08-12T09:40:42;29.20;47.90
12060;DHT22;6091;51.432;6.880;2023-08-12T09:43:11;29.20;47.80
12060;DHT22;6091;51.432;6.880;2023-08-12T09:45:40;29.20;47.80
12060;DHT22;6091;51.432;6.880;2023-08-12T09:48:07;29.20;47.80
12060;DHT22;6091;51.432;6.880;2023-08-12T09:50:37;29.20;47.80
12060;DHT22;6091;51.432;6.880;2023-08-12T09:53:04;29.20;47.80
12060;DHT22;6091;51.432;6.880;2023-08-12T09:55:52;29.20;47.70
12060;DHT22;6091;51.432;6.880;2023-08-12T10:02:52;29.30;48.60
12060;DHT22;6091;51.432;6.880;2023-08-12T10:05:27;29.20;48.50
12060;DHT22;6091;51.432;6.880;2023-08-12T10:07:55;29.20;49.00
12060;DHT22;6091;51.432;6.880;2023-08-12T10:10:22;29.20;48.80
12060;DHT22;6091;51.432;6.880;2023-08-12T10:12:50;29.10;49.20
12060;DHT22;6091;51.432;6.880;2023-08-12T10:15:19;29.10;49.20
12060;DHT22;6091;51.432;6.880;2023-08-12T10:17:48;29.10;49.40
12060;DHT22;6091;51.432;6.880;2023-08-12T10:20:24;29.10;49.40
12060;DHT22;6091;51.432;6.880;2023-08-12T10:22:52;29.10;49.80
12060;DHT22;6091;51.432;6.880;2023-08-12T10:25:20;29.10;49.80
12060;DHT22;6091;51.432;6.880;2023-08-12T10:27:50;29.10;49.80
12060;DHT22;6091;51.432;6.880;2023-08-12T10:30:20;29.10;49.90
12060;DHT22;6091;51.432;6.880;2023-08-12T10:32:47;29.10;50.10
12060;DHT22;6091;51.432;6.880;2023-08-12T10:35:15;29.10;50.10
12060;DHT22;6091;51.432;6.880;2023-08-12T10:37:42;29.10;50.10
12060;DHT22;6091;51.432;6.880;2023-08-12T10:40:22;29.10;50.30
12060;DHT22;6091;51.432;6.880;2023-08-12T10:42:50;29.10;50.70
12060;DHT22;6091;51.432;6.880;2023-08-12T10:45:18;29.10;50.30
12060;DHT22;6091;51.432;6.880;2023-08-12T10:48:09;29.10;50.30
12060;DHT22;6091;51.432;6.880;2023-08-12T10:50:48;29.20;50.80
12060;DHT22;6091;51.432;6.880;2023-08-12T10:56:03;29.20;50.80
12060;DHT22;6091;51.432;6.880;2023-08-12T11:01:17;29.20;50.80
12060;DHT22;6091;51.432;6.880;2023-08-12T11:03:46;29.20;50.90
12060;DHT22;6091;51.432;6.880;2023-08-12T11:06:14;29.20;50.70
12060;DHT22;6091;51.432;6.880;2023-08-12T11:08:52;29.20;50.80
12060;DHT22;6091;51.432;6.880;2023-08-12T11:11:22;29.20;51.30
12060;DHT22;6091;51.432;6.880;2023-08-12T11:13:54;29.20;50.90
12060;DHT22;6091;51.432;6.880;2023-08-12T11:16:36;29.20;51.20
12060;DHT22;6091;51.432;6.880;2023-08-12T11:19:04;29.20;51.40
12060;DHT22;6091;51.432;6.880;2023-08-12T11:21:31;29.20;51.10
12060;DHT22;6091;51.432;6.880;2023-08-12T11:24:01;29.20;51.80
12060;DHT22;6091;51.432;6.880;2023-08-12T11:26:30;29.20;51.40
12060;DHT22;6091;51.432;6.880;2023-08-12T11:28:57;29.20;51.50
12060;DHT22;6091;51.432;6.880;2023-08-12T11:31:25;29.20;51.40
12060;DHT22;6091;51.432;6.880;2023-08-12T11:33:54;29.20;51.60
12060;DHT22;6091;51.432;6.880;2023-08-12T11:36:21;29.20;51.50
12060;DHT22;6091;51.432;6.880;2023-08-12T11:38:48;29.30;51.70
12060;DHT22;6091;51.432;6.880;2023-08-12T11:41:17;29.30;51.80
12060;DHT22;6091;51.432;6.880;2023-08-12T11:43:45;29.30;51.90
12060;DHT22;6091;51.432;6.880;2023-08-12T11:46:15;29.30;51.80
12060;DHT22;6091;51.432;6.880;2023-08-12T11:48:43;29.30;51.90
12060;DHT22;6091;51.432;6.880;2023-08-12T11:51:11;29.40;51.90
12060;DHT22;6091;51.432;6.880;2023-08-12T11:53:38;29.40;51.90
12060;DHT22;6091;51.432;6.880;2023-08-12T11:56:05;29.40;52.20
12060;DHT22;6091;51.432;6.880;2023-08-12T11:58:39;29.40;51.70
12060;DHT22;6091;51.432;6.880;2023-08-12T12:01:18;29.40;52.00
12060;DHT22;6091;51.432;6.880;2023-08-12T12:03:45;29.40;51.70
12060;DHT22;6091;51.432;6.880;2023-08-12T12:06:27;29.40;51.70
12060;DHT22;6091;51.432;6.880;2023-08-12T12:09:07;29.30;51.50
12060;DHT22;6091;51.432;6.880;2023-08-12T12:11:40;29.30;51.70
12060;DHT22;6091;51.432;6.880;2023-08-12T12:14:09;29.30;51.50
12060;DHT22;6091;51.432;6.880;2023-08-12T12:16:48;29.20;51.70
12060;DHT22;6091;51.432;6.880;2023-08-12T12:19:20;29.20;52.00
12060;DHT22;6091;51.432;6.880;2023-08-12T12:21:52;29.10;51.60
12060;DHT22;6091;51.432;6.880;2023-08-12T12:24:20;29.10;51.80
12060;DHT22;6091;51.432;6.880;2023-08-12T12:26:50;29.00;51.70
12060;DHT22;6091;51.432;6.880;2023-08-12T12:29:17;30.90;53.10
12060;DHT22;6091;51.432;6.880;2023-08-12T12:31:44;29.00;51.90
12060;DHT22;6091;51.432;6.880;2023-08-12T12:34:11;28.90;51.90
12060;DHT22;6091;51.432;6.880;2023-08-12T12:36:41;28.90;52.10
12060;DHT22;6091;51.432;6.880;2023-08-12T12:39:09;28.80;52.20
12060;DHT22;6091;51.432;6.880;2023-08-12T12:41:36;28.80;52.30
12060;DHT22;6091;51.432;6.880;2023-08-12T12:44:03;28.80;52.40
12060;DHT22;6091;51.432;6.880;2023-08-12T12:46:31;28.80;52.50
12060;DHT22;6091;51.432;6.880;2023-08-12T12:48:58;28.80;52.60
12060;DHT22;6091;51.432;6.880;2023-08-12T12:51:25;28.70;52.50
12060;DHT22;6091;51.432;6.880;2023-08-12T12:53:53;28.70;52.80
12060;DHT22;6091;51.432;6.880;2023-08-12T12:56:20;28.70;52.80
12060;DHT22;6091;51.432;6.880;2023-08-12T12:58:47;28.70;52.80
12060;DHT22;6091;51.432;6.880;2023-08-12T13:01:14;28.70;53.00
12060;DHT22;6091;51.432;6.880;2023-08-12T13:03:41;28.70;52.90
12060;DHT22;6091;51.432;6.880;2023-08-12T13:06:09;28.70;53.00
12060;DHT22;6091;51.432;6.880;2023-08-12T13:08:36;28.70;53.10
12060;DHT22;6091;51.432;6.880;2023-08-12T13:11:03;28.70;53.00
12060;DHT22;6091;51.432;6.880;2023-08-12T13:13:33;28.70;53.20
12060;DHT22;6091;51.432;6.880;2023-08-12T13:16:00;28.70;53.30
12060;DHT22;6091;51.432;6.880;2023-08-12T13:18:27;28.80;53.40
12060;DHT22;6091;51.432;6.880;2023-08-12T13:20:54;28.80;53.30
12060;DHT22;6091;51.432;6.880;2023-08-12T13:23:24;28.80;53.50
12060;DHT22;6091;51.432;6.880;2023-08-12T13:25:51;28.80;53.50
12060;DHT22;6091;51.432;6.880;2023-08-12T13:28:19;28.80;53.50
12060;DHT22;6091;51.432;6.880;2023-08-12T13:30:46;28.90;53.70
12060;DHT22;6091;51.432;6.880;2023-08-12T13:33:13;28.90;53.60
12060;DHT22;6091;51.432;6.880;2023-08-12T13:35:40;28.90;53.60
12060;DHT22;6091;51.432;6.880;2023-08-12T13:38:07;28.90;53.70
12060;DHT22;6091;51.432;6.880;2023-08-12T13:40:34;28.90;53.80
12060;DHT22;6091;51.432;6.880;2023-08-12T13:43:01;28.90;53.70
12060;DHT22;6091;51.432;6.880;2023-08-12T13:45:29;28.80;53.70
12060;DHT22;6091;51.432;6.880;2023-08-12T13:47:56;28.80;53.90
12060;DHT22;6091;51.432;6.880;2023-08-12T13:50:23;28.80;53.90
12060;DHT22;6091;51.432;6.880;2023-08-12T13:52:50;28.80;54.00
12060;DHT22;6091;51.432;6.880;2023-08-12T13:55:18;28.90;54.00
12060;DHT22;6091;51.432;6.880;2023-08-12T13:57:45;29.00;54.10
12060;DHT22;6091;51.432;6.880;2023-08-12T14:00:14;28.90;54.00
12060;DHT22;6091;51.432;6.880;2023-08-12T14:02:42;29.00;54.20
12060;DHT22;6091;51.432;6.880;2023-08-12T14:05:10;29.00;54.10
12060;DHT22;6091;51.432;6.880;2023-08-12T14:07:38;29.00;54.10
12060;DHT22;6091;51.432;6.880;2023-08-12T14:10:05;29.10;54.10
12060;DHT22;6091;51.432;6.880;2023-08-12T14:12:33;29.10;54.00
12060;DHT22;6091;51.432;6.880;2023-08-12T14:15:01;29.20;54.10
12060;DHT22;6091;51.432;6.880;2023-08-12T14:17:28;29.20;54.10
12060;DHT22;6091;51.432;6.880;2023-08-12T14:19:55;29.20;54.10
12060;DHT22;6091;51.432;6.880;2023-08-12T14:22:27;29.30;54.10
12060;DHT22;6091;51.432;6.880;2023-08-12T14:24:54;29.30;53.90
12060;DHT22;6091;51.432;6.880;2023-08-12T14:27:22;29.30;53.90
12060;DHT22;6091;51.432;6.880;2023-08-12T14:29:49;29.40;53.90
12060;DHT22;6091;51.432;6.880;2023-08-12T14:32:16;29.40;53.80
12060;DHT22;6091;51.432;6.880;2023-08-12T14:34:46;29.40;54.40
12060;DHT22;6091;51.432;6.880;2023-08-12T14:37:14;29.40;53.90
12060;DHT22;6091;51.432;6.880;2023-08-12T14:39:42;29.40;53.70
12060;DHT22;6091;51.432;6.880;2023-08-12T14:42:09;29.50;53.80
12060;DHT22;6091;51.432;6.880;2023-08-12T14:44:37;29.50;53.70
12060;DHT22;6091;51.432;6.880;2023-08-12T14:47:04;29.50;53.60
12060;DHT22;6091;51.432;6.880;2023-08-12T14:49:31;29.40;53.80
12060;DHT22;6091;51.432;6.880;2023-08-12T14:51:58;29.40;53.70
12060;DHT22;6091;51.432;6.880;2023-08-12T14:54:25;29.40;53.60
12060;DHT22;6091;51.432;6.880;2023-08-12T14:56:52;29.50;53.60
12060;DHT22;6091;51.432;6.880;2023-08-12T14:59:19;29.40;53.40
12060;DHT22;6091;51.432;6.880;2023-08-12T15:01:46;29.40;53.30
12060;DHT22;6091;51.432;6.880;2023-08-12T15:04:13;29.40;53.20
12060;DHT22;6091;51.432;6.880;2023-08-12T15:06:40;29.50;53.20
12060;DHT22;6091;51.432;6.880;2023-08-12T15:09:07;29.50;53.00
12060;DHT22;6091;51.432;6.880;2023-08-12T15:11:36;29.50;53.10
12060;DHT22;6091;51.432;6.880;2023-08-12T15:14:03;29.50;53.20
12060;DHT22;6091;51.432;6.880;2023-08-12T15:16:30;29.50;53.00
12060;DHT22;6091;51.432;6.880;2023-08-12T15:18:58;29.50;53.30
12060;DHT22;6091;51.432;6.880;2023-08-12T15:21:25;29.50;52.90
12060;DHT22;6091;51.432;6.880;2023-08-12T15:23:52;29.50;53.00
12060;DHT22;6091;51.432;6.880;2023-08-12T15:26:20;29.50;52.90
12060;DHT22;6091;51.432;6.880;2023-08-12T15:28:49;29.50;52.30
12060;DHT22;6091;51.432;6.880;2023-08-12T15:31:16;29.50;51.90
12060;DHT22;6091;51.432;6.880;2023-08-12T15:33:43;29.50;51.90
12060;DHT22;6091;51.432;6.880;2023-08-12T15:36:10;29.50;51.60
12060;DHT22;6091;51.432;6.880;2023-08-12T15:38:37;29.50;51.30
12060;DHT22;6091;51.432;6.880;2023-08-12T15:41:15;29.50;51.40
12060;DHT22;6091;51.432;6.880;2023-08-12T15:43:43;29.60;51.00
12060;DHT22;6091;51.432;6.880;2023-08-12T15:46:10;29.50;51.50
12060;DHT22;6091;51.432;6.880;2023-08-12T15:48:39;29.60;51.50
12060;DHT22;6091;51.432;6.880;2023-08-12T15:51:06;29.60;51.20
12060;DHT22;6091;51.432;6.880;2023-08-12T15:53:33;29.50;51.10
12060;DHT22;6091;51.432;6.880;2023-08-12T15:56:00;29.60;51.10
12060;DHT22;6091;51.432;6.880;2023-08-12T15:58:27;29.60;51.00
12060;DHT22;6091;51.432;6.880;2023-08-12T16:00:54;29.60;50.90
12060;DHT22;6091;51.432;6.880;2023-08-12T16:03:21;29.70;50.80